Time;durP1;ratioP1;P1;durP2;ratioP2;P2;SDS_P1;SDS_P2;PMS_P1;PMS_P2;Temp;Humidity;BMP_temperature;BMP_pressure;BME280_temperature;BME280_humidity;BME280_pressure;Samples;Min_cycle;Max_cycle;Signal;HPM_P1;HPM_P2
2022/05/01 00:01:33;;;;;;;9.45;6.20;;;17.30;99.30;;;;;;5052903;28;20525;-74
2022/05/01 00:04:00;;;;;;;12.45;7.03;;;17.30;99.20;;;;;;5036352;28;20390;-74
2022/05/01 00:06:31;;;;;;;9.15;4.82;;;17.20;99.10;;;;;;5052677;28;20083;-74
2022/05/01 00:09:00;;;;;;;10.00;6.35;;;17.20;99.10;;;;;;5072647;28;20422;-78
2022/05/01 00:11:30;;;;;;;11.85;5.45;;;17.20;99.10;;;;;;5073403;28;20044;-74
2022/05/01 00:13:58;;;;;;;10.30;5.57;;;17.10;99.00;;;;;;5054372;28;20036;-75
2022/05/01 00:16:25;;;;;;;9.23;5.35;;;17.10;99.10;;;;;;5055833;28;20580;-74
2022/05/01 00:18:53;;;;;;;9.80;5.75;;;17.10;99.20;;;;;;5055588;28;20044;-74
2022/05/01 00:21:21;;;;;;;8.52;5.60;;;17.10;99.20;;;;;;5038799;28;20044;-74
2022/05/01 00:23:48;;;;;;;10.93;6.65;;;17.10;99.20;;;;;;5073082;28;20071;-75
2022/05/01 00:26:16;;;;;;;13.15;5.57;;;17.10;99.20;;;;;;5056252;28;20101;-74
2022/05/01 00:28:44;;;;;;;9.52;5.40;;;17.00;99.20;;;;;;5056202;28;20056;-74
2022/05/01 00:31:11;;;;;;;15.55;6.00;;;17.00;99.30;;;;;;5055518;28;20081;-74
2022/05/01 00:36:27;;;;;;;12.95;7.68;;;16.90;99.30;;;;;;5072306;28;20052;-74
2022/05/01 00:39:06;;;;;;;8.52;6.25;;;16.90;99.30;;;;;;5055562;28;20793;-74
2022/05/01 00:41:36;;;;;;;9.68;6.55;;;16.90;99.30;;;;;;5072524;28;20117;-75
2022/05/01 00:44:12;;;;;;;14.13;7.88;;;16.90;99.20;;;;;;5056443;28;20059;-74
2022/05/01 00:46:59;;;;;;;11.40;7.63;;;16.80;99.10;;;;;;5089098;28;20482;-74
2022/05/01 00:49:28;;;;;;;11.73;7.15;;;16.80;99.10;;;;;;5038900;28;20044;-75
2022/05/01 00:52:10;;;;;;;15.52;7.30;;;16.70;99.10;;;;;;5090034;28;20123;-75
2022/05/01 00:54:39;;;;;;;14.40;6.57;;;16.70;99.20;;;;;;5055430;28;20036;-74
2022/05/01 00:57:07;;;;;;;11.32;6.85;;;16.70;99.20;;;;;;5055389;28;20058;-74
2022/05/01 00:59:37;;;;;;;9.40;6.03;;;16.70;99.20;;;;;;5056196;28;20052;-74
2022/05/01 01:02:06;;;;;;;12.35;6.40;;;16.70;99.10;;;;;;5055547;28;20048;-74
2022/05/01 01:04:34;;;;;;;10.32;6.43;;;16.70;99.20;;;;;;5042695;28;20501;-74
2022/05/01 01:07:03;;;;;;;7.57;5.32;;;16.70;99.10;;;;;;5069788;28;20048;-74
2022/05/01 01:09:31;;;;;;;7.85;5.35;;;16.70;99.00;;;;;;5070130;28;20056;-73
2022/05/01 01:14:45;;;;;;;9.50;4.60;;;16.70;98.80;;;;;;5052363;28;20106;-73
2022/05/01 01:17:13;;;;;;;7.70;4.75;;;16.70;98.60;;;;;;5035298;28;20053;-74
2022/05/01 01:19:40;;;;;;;9.38;5.03;;;16.70;98.50;;;;;;5036206;28;20134;-74
2022/05/01 01:22:09;;;;;;;8.10;4.63;;;16.70;98.40;;;;;;5035505;28;20490;-73
2022/05/01 01:24:39;;;;;;;8.38;4.80;;;16.70;98.30;;;;;;5035928;28;20056;-74
2022/05/01 01:27:08;;;;;;;10.35;5.00;;;16.70;98.20;;;;;;5034922;28;20076;-74
2022/05/01 01:32:26;;;;;;;8.60;4.38;;;16.60;98.00;;;;;;5034811;28;20495;-74
2022/05/01 01:34:55;;;;;;;7.40;5.00;;;16.60;97.80;;;;;;5035480;28;20139;-74
2022/05/01 01:37:24;;;;;;;5.85;4.20;;;16.70;97.80;;;;;;5018801;28;20414;-73
2022/05/01 01:39:52;;;;;;;8.70;3.88;;;16.70;97.70;;;;;;5051553;28;20063;-74
2022/05/01 01:42:22;;;;;;;8.95;4.22;;;16.70;97.40;;;;;;5035033;28;20495;-74
2022/05/01 01:44:50;;;;;;;7.65;5.15;;;16.70;97.30;;;;;;5035777;28;20113;-74
2022/05/01 01:47:18;;;;;;;7.25;4.25;;;16.70;97.00;;;;;;5051724;28;20068;-73
2022/05/01 01:49:46;;;;;;;7.50;4.25;;;16.80;96.90;;;;;;5035572;28;20469;-74
2022/05/01 01:52:13;;;;;;;6.82;5.00;;;16.80;96.80;;;;;;5035399;28;20597;-74
2022/05/01 01:54:42;;;;;;;12.10;4.57;;;16.80;96.70;;;;;;5051652;28;20090;-73
2022/05/01 01:57:10;;;;;;;10.10;4.65;;;16.80;96.50;;;;;;5034444;28;20052;-74
2022/05/01 01:59:37;;;;;;;7.85;4.35;;;16.80;96.40;;;;;;5035012;28;20051;-74
2022/05/01 02:02:08;;;;;;;7.55;5.10;;;16.80;96.40;;;;;;5035231;28;20044;-75
2022/05/01 02:04:36;;;;;;;9.70;4.95;;;16.80;96.40;;;;;;5083794;28;20055;-74
2022/05/01 02:07:04;;;;;;;6.78;4.57;;;16.80;96.20;;;;;;5055801;28;20056;-74
2022/05/01 02:09:32;;;;;;;8.10;5.07;;;16.70;96.20;;;;;;5042045;28;20083;-73
2022/05/01 02:12:00;;;;;;;9.43;5.10;;;16.70;96.20;;;;;;5058672;28;20051;-74
2022/05/01 02:14:27;;;;;;;9.15;5.05;;;16.70;96.30;;;;;;5042164;28;20155;-75
2022/05/01 02:16:57;;;;;;;7.57;4.95;;;16.60;96.10;;;;;;5042361;28;20062;-74
2022/05/01 02:19:24;;;;;;;8.25;4.95;;;16.60;96.10;;;;;;5058566;28;20048;-74
2022/05/01 02:21:54;;;;;;;8.93;4.88;;;16.60;96.00;;;;;;5041977;28;20036;-74
2022/05/01 02:24:23;;;;;;;7.35;4.60;;;16.60;96.00;;;;;;5058494;28;20044;-74
2022/05/01 02:26:52;;;;;;;7.25;5.38;;;16.60;95.90;;;;;;5041329;28;20056;-74
2022/05/01 02:29:20;;;;;;;11.95;5.40;;;16.60;95.80;;;;;;5092777;28;20059;-74
2022/05/01 02:31:53;;;;;;;7.72;5.40;;;16.60;95.70;;;;;;5042001;28;20059;-74
2022/05/01 02:34:22;;;;;;;9.68;5.25;;;16.60;95.50;;;;;;5093077;28;20130;-75
2022/05/01 02:36:53;;;;;;;9.18;5.50;;;16.50;95.50;;;;;;5058486;28;20048;-75
2022/05/01 02:39:22;;;;;;;7.63;4.68;;;16.60;95.50;;;;;;5058443;28;20452;-75
2022/05/01 02:41:50;;;;;;;10.55;5.95;;;16.50;95.30;;;;;;5058068;28;20055;-74
2022/05/01 02:44:17;;;;;;;9.15;5.30;;;16.60;95.30;;;;;;5058615;28;20093;-74
2022/05/01 02:46:46;;;;;;;9.05;5.70;;;16.60;95.20;;;;;;5058401;28;20499;-74
2022/05/01 02:49:14;;;;;;;7.60;5.38;;;16.50;95.10;;;;;;5040911;28;20047;-74
2022/05/01 02:51:42;;;;;;;11.85;5.35;;;16.50;95.10;;;;;;5058035;28;20595;-74
2022/05/01 02:54:10;;;;;;;6.35;4.20;;;16.50;95.10;;;;;;5041443;28;20059;-74
2022/05/01 02:56:37;;;;;;;6.07;4.80;;;16.50;95.00;;;;;;5074533;28;20063;-74
2022/05/01 02:59:09;;;;;;;7.57;5.78;;;16.50;94.80;;;;;;5041232;28;20048;-74
2022/05/01 03:01:37;;;;;;;8.10;5.53;;;16.50;94.80;;;;;;5042970;28;20052;-75
2022/05/01 03:04:05;;;;;;;10.80;5.53;;;16.40;94.70;;;;;;5054160;28;20631;-75
2022/05/01 03:06:34;;;;;;;7.57;5.00;;;16.50;94.70;;;;;;5037955;28;20119;-75
2022/05/01 03:09:02;;;;;;;7.28;4.55;;;16.50;94.80;;;;;;5020517;28;20182;-75
2022/05/01 03:11:32;;;;;;;9.77;4.47;;;16.40;94.50;;;;;;5037385;28;20090;-75
2022/05/01 03:13:59;;;;;;;9.88;4.78;;;16.40;94.40;;;;;;5021514;28;20106;-75
2022/05/01 03:16:27;;;;;;;10.77;5.28;;;16.40;94.30;;;;;;5054210;28;20041;-75
2022/05/01 03:24:27;;;;;;;7.32;4.82;;;16.30;94.10;;;;;;5036969;28;20106;-74
2022/05/01 03:26:54;;;;;;;9.23;5.20;;;16.40;94.10;;;;;;5037153;28;20044;-75
2022/05/01 03:29:22;;;;;;;11.75;6.28;;;16.30;94.00;;;;;;5020522;28;20173;-74
2022/05/01 03:31:50;;;;;;;10.52;5.18;;;16.30;94.00;;;;;;5037095;28;20110;-75
2022/05/01 03:34:18;;;;;;;9.82;6.00;;;16.30;94.00;;;;;;5053666;28;20173;-75
2022/05/01 03:36:47;;;;;;;9.50;4.53;;;16.30;94.00;;;;;;5020179;28;20592;-74
2022/05/01 03:39:15;;;;;;;10.25;5.65;;;16.30;94.10;;;;;;5020012;28;20080;-75
2022/05/01 03:41:43;;;;;;;7.38;4.80;;;16.30;94.10;;;;;;5036304;28;20057;-75
2022/05/01 03:44:10;;;;;;;7.57;5.72;;;16.20;94.10;;;;;;5036843;28;20041;-75
2022/05/01 03:46:38;;;;;;;9.57;4.68;;;16.20;94.20;;;;;;5020321;28;20143;-75
2022/05/01 03:49:06;;;;;;;7.72;4.72;;;16.20;94.20;;;;;;5053493;28;20123;-75
2022/05/01 03:51:34;;;;;;;7.97;4.82;;;16.20;94.30;;;;;;5036756;28;20507;-75
2022/05/01 03:54:02;;;;;;;6.32;4.53;;;16.20;94.40;;;;;;5053137;28;20068;-75
2022/05/01 03:56:31;;;;;;;7.22;4.78;;;16.20;94.40;;;;;;5036915;28;20057;-75
2022/05/01 03:58:59;;;;;;;10.20;4.70;;;16.20;94.50;;;;;;5036385;28;20407;-77
2022/05/01 04:01:27;;;;;;;7.63;5.03;;;16.20;94.60;;;;;;5069824;28;20037;-75
2022/05/01 04:03:55;;;;;;;7.90;4.05;;;16.20;94.70;;;;;;5036148;28;20055;-75
2022/05/01 04:06:23;;;;;;;8.15;4.40;;;16.20;94.80;;;;;;5052699;28;20044;-76
2022/05/01 04:08:51;;;;;;;6.28;3.70;;;16.20;95.00;;;;;;5052463;28;20437;-75
2022/05/01 04:11:19;;;;;;;6.95;3.92;;;16.20;95.10;;;;;;5036077;28;20143;-75
2022/05/01 04:13:48;;;;;;;7.78;5.40;;;16.30;95.30;;;;;;5052529;28;20155;-75
2022/05/01 04:16:16;;;;;;;7.25;4.60;;;16.20;95.40;;;;;;5053145;28;20376;-75
2022/05/01 04:18:43;;;;;;;12.10;5.05;;;16.30;95.60;;;;;;5070256;28;20123;-75
2022/05/01 04:21:13;;;;;;;8.55;4.80;;;16.30;95.70;;;;;;5052253;28;20044;-75
2022/05/01 04:23:41;;;;;;;7.03;4.50;;;16.40;95.70;;;;;;5035688;28;20493;-75
2022/05/01 04:26:08;;;;;;;10.40;5.07;;;16.40;95.80;;;;;;5035972;28;20055;-75
2022/05/01 04:28:36;;;;;;;8.45;5.63;;;16.40;95.90;;;;;;5035621;28;20050;-75
2022/05/01 04:31:03;;;;;;;6.40;4.32;;;16.40;96.10;;;;;;5035054;28;20048;-75
2022/05/01 04:33:31;;;;;;;6.22;4.30;;;16.50;96.20;;;;;;5052851;28;20044;-75
2022/05/01 04:35:59;;;;;;;6.80;4.32;;;16.50;96.20;;;;;;5052348;28;20056;-75
2022/05/01 04:38:27;;;;;;;8.48;4.88;;;16.60;96.40;;;;;;5052043;28;20110;-76
2022/05/01 04:40:58;;;;;;;8.40;4.47;;;16.60;96.60;;;;;;5052385;28;20041;-75
2022/05/01 04:43:27;;;;;;;5.78;4.30;;;16.60;96.60;;;;;;5035552;28;20139;-76
2022/05/01 04:45:58;;;;;;;11.32;4.60;;;16.70;96.80;;;;;;5035981;28;20054;-75
2022/05/01 04:48:26;;;;;;;5.53;3.60;;;16.80;97.00;;;;;;5052254;28;20406;-75
2022/05/01 04:50:54;;;;;;;6.68;3.90;;;16.90;97.10;;;;;;5049971;28;20506;-75
2022/05/01 04:53:22;;;;;;;8.38;4.88;;;17.00;97.20;;;;;;5035364;28;20048;-76
2022/05/01 04:55:52;;;;;;;7.00;4.00;;;17.20;97.20;;;;;;5062337;28;20048;-76
2022/05/01 04:58:20;;;;;;;7.05;4.43;;;17.30;97.20;;;;;;5052388;28;20498;-75
2022/05/01 05:00:48;;;;;;;9.98;4.35;;;17.40;97.10;;;;;;5035981;28;20770;-75
2022/05/01 05:03:16;;;;;;;6.38;4.00;;;17.50;97.20;;;;;;5052000;28;20437;-75
2022/05/01 05:05:44;;;;;;;6.53;3.67;;;17.60;97.20;;;;;;5051850;28;20561;-76
2022/05/01 05:10:58;;;;;;;7.97;4.27;;;17.80;97.20;;;;;;5051836;28;20422;-74
2022/05/01 05:13:27;;;;;;;6.78;3.90;;;18.00;97.40;;;;;;5035643;28;20152;-73
2022/05/01 05:15:59;;;;;;;5.85;3.97;;;18.20;97.20;;;;;;5035077;28;20048;-75
2022/05/01 05:18:27;;;;;;;8.13;5.32;;;18.20;97.10;;;;;;5035695;28;20045;-74
2022/05/01 05:20:56;;;;;;;9.13;4.38;;;18.30;97.10;;;;;;5035253;28;20075;-73
2022/05/01 05:23:24;;;;;;;9.35;4.88;;;18.40;97.10;;;;;;5052313;28;20045;-74
2022/05/01 05:25:52;;;;;;;8.38;4.15;;;18.30;97.00;;;;;;5035489;28;20079;-74
2022/05/01 05:28:19;;;;;;;8.85;4.38;;;18.30;97.00;;;;;;5019016;28;20053;-73
2022/05/01 05:30:51;;;;;;;12.55;4.28;;;18.30;97.10;;;;;;5035284;28;20060;-74
2022/05/01 05:33:19;;;;;;;6.72;4.38;;;18.30;97.20;;;;;;5035562;28;20362;-74
2022/05/01 05:35:47;;;;;;;6.82;4.25;;;18.50;97.20;;;;;;5069715;28;20036;-74
2022/05/01 05:38:15;;;;;;;7.53;4.75;;;18.60;97.10;;;;;;5051340;28;20064;-74
2022/05/01 05:40:43;;;;;;;6.30;4.72;;;18.90;96.80;;;;;;5051127;28;20045;-74
2022/05/01 05:43:10;;;;;;;7.60;3.80;;;19.10;96.50;;;;;;5070122;28;20036;-75
2022/05/01 05:45:38;;;;;;;6.38;4.45;;;19.30;96.00;;;;;;5055601;28;20600;-74
2022/05/01 05:48:06;;;;;;;9.25;4.18;;;19.50;95.40;;;;;;5038387;28;20045;-74
2022/05/01 05:50:34;;;;;;;9.93;4.97;;;19.60;95.40;;;;;;5055277;28;20151;-73
2022/05/01 05:53:02;;;;;;;6.72;4.35;;;19.80;95.20;;;;;;5054798;28;20056;-75
2022/05/01 05:55:33;;;;;;;7.78;3.63;;;20.00;94.90;;;;;;5055455;28;20056;-74
2022/05/01 05:58:02;;;;;;;5.55;3.65;;;20.20;94.70;;;;;;5071792;28;20044;-73
2022/05/01 06:00:30;;;;;;;6.55;3.50;;;20.40;94.10;;;;;;5055008;28;20885;-74
2022/05/01 06:02:58;;;;;;;7.15;3.88;;;20.60;93.80;;;;;;5054885;28;20048;-74
2022/05/01 06:05:26;;;;;;;5.75;3.78;;;20.60;93.10;;;;;;5055470;28;20045;-74
2022/05/01 06:07:54;;;;;;;5.88;3.60;;;20.80;93.10;;;;;;5072961;28;20052;-74
2022/05/01 06:10:22;;;;;;;3.90;2.95;;;20.90;92.40;;;;;;5054048;28;20076;-74
2022/05/01 06:12:50;;;;;;;5.13;2.70;;;21.00;91.70;;;;;;5054611;28;20445;-73
2022/05/01 06:15:19;;;;;;;4.80;3.13;;;21.00;90.90;;;;;;5071528;28;20127;-73
2022/05/01 06:17:47;;;;;;;4.57;2.63;;;21.20;90.40;;;;;;5038343;28;20053;-74
2022/05/01 06:20:15;;;;;;;6.60;2.97;;;21.30;90.40;;;;;;5038355;28;20402;-74
2022/05/01 06:22:43;;;;;;;5.03;2.85;;;21.40;90.60;;;;;;5055132;28;20044;-74
2022/05/01 06:25:10;;;;;;;5.28;3.00;;;21.50;90.60;;;;;;5071236;28;20470;-73
2022/05/01 06:27:38;;;;;;;7.13;3.13;;;21.60;90.30;;;;;;5038304;28;20059;-74
2022/05/01 06:30:07;;;;;;;5.70;2.70;;;21.40;90.30;;;;;;5054764;28;20052;-74
2022/05/01 06:32:35;;;;;;;4.32;3.22;;;21.40;90.00;;;;;;5037864;28;20056;-75
2022/05/01 06:35:03;;;;;;;4.72;2.70;;;21.40;88.30;;;;;;5054261;28;20044;-73
2022/05/01 06:37:32;;;;;;;4.45;2.20;;;21.30;87.70;;;;;;5054948;28;20131;-73
2022/05/01 06:40:00;;;;;;;4.45;2.70;;;21.20;85.80;;;;;;5038369;28;20052;-73
2022/05/01 06:42:29;;;;;;;6.85;3.03;;;21.00;84.50;;;;;;5021399;28;20513;-75
2022/05/01 06:44:56;;;;;;;3.92;2.47;;;20.80;84.20;;;;;;5021498;28;20052;-74
2022/05/01 06:47:24;;;;;;;4.80;3.00;;;20.80;83.90;;;;;;5054928;28;20052;-74
2022/05/01 06:49:52;;;;;;;6.88;2.92;;;20.90;84.10;;;;;;5054505;28;20041;-74
2022/05/01 06:52:24;;;;;;;4.10;2.70;;;20.90;84.00;;;;;;5037928;28;20053;-74
2022/05/01 06:54:52;;;;;;;5.13;2.67;;;21.10;83.40;;;;;;5053843;28;20040;-74
2022/05/01 06:57:20;;;;;;;8.68;2.97;;;21.10;83.50;;;;;;5037745;28;20045;-74
2022/05/01 06:59:48;;;;;;;4.53;2.60;;;21.40;84.30;;;;;;5038052;28;20128;-73
2022/05/01 07:02:16;;;;;;;5.55;2.85;;;21.50;83.40;;;;;;5053977;28;20044;-73
2022/05/01 07:04:44;;;;;;;4.72;2.95;;;21.60;83.20;;;;;;5053958;28;20040;-74
2022/05/01 07:07:11;;;;;;;4.57;2.70;;;21.70;82.60;;;;;;5037025;28;20132;-74
2022/05/01 07:09:39;;;;;;;6.97;2.58;;;22.00;82.40;;;;;;5037047;28;20085;-74
2022/05/01 07:12:10;;;;;;;3.25;2.20;;;22.00;82.00;;;;;;5037506;28;20047;-73
2022/05/01 07:14:38;;;;;;;5.13;2.50;;;21.80;82.10;;;;;;5021050;28;20076;-74
2022/05/01 07:17:09;;;;;;;3.28;2.28;;;21.70;81.80;;;;;;5054039;28;20456;-73
2022/05/01 07:19:36;;;;;;;2.90;2.22;;;21.70;81.70;;;;;;5036788;28;20094;-74
2022/05/01 07:22:04;;;;;;;4.93;3.00;;;21.50;80.40;;;;;;5044025;28;20101;-74
2022/05/01 07:24:32;;;;;;;3.80;2.50;;;21.40;81.30;;;;;;5073470;28;20079;-74
2022/05/01 07:27:00;;;;;;;4.70;2.58;;;21.30;81.60;;;;;;5056602;28;20143;-74
2022/05/01 07:29:28;;;;;;;3.45;2.55;;;21.10;82.30;;;;;;5040219;28;20184;-73
2022/05/01 07:31:55;;;;;;;3.72;2.55;;;20.90;82.10;;;;;;5056902;28;20048;-74
2022/05/01 07:34:23;;;;;;;4.63;2.28;;;20.90;83.20;;;;;;5056859;28;20044;-74
2022/05/01 07:36:51;;;;;;;5.35;2.47;;;20.90;82.80;;;;;;5056910;28;20040;-74
2022/05/01 07:39:18;;;;;;;6.10;2.78;;;21.00;82.90;;;;;;5039894;28;20413;-74
2022/05/01 07:41:46;;;;;;;4.55;2.30;;;21.20;82.10;;;;;;5056850;28;20517;-72
2022/05/01 07:44:14;;;;;;;4.35;3.00;;;21.30;81.00;;;;;;5056242;28;20047;-72
2022/05/01 07:46:43;;;;;;;6.25;2.53;;;21.50;81.30;;;;;;5069859;28;20032;-71
2022/05/01 07:49:12;;;;;;;3.45;1.90;;;21.60;80.80;;;;;;5041171;28;20056;-71
2022/05/01 07:51:40;;;;;;;5.45;2.85;;;21.80;79.40;;;;;;5053922;28;20051;-71
2022/05/01 07:54:08;;;;;;;4.25;2.53;;;21.90;79.30;;;;;;5045602;28;20056;-71
2022/05/01 07:56:35;;;;;;;5.05;2.80;;;22.00;77.40;;;;;;5039805;28;20051;-71
2022/05/01 07:59:03;;;;;;;5.38;2.30;;;22.10;77.50;;;;;;5048861;28;20055;-71
2022/05/01 08:01:31;;;;;;;3.55;2.08;;;22.30;77.90;;;;;;5038133;28;20126;-71
2022/05/01 08:06:45;;;;;;;6.28;2.80;;;22.80;77.10;;;;;;5039913;28;20040;-73
2022/05/01 08:09:13;;;;;;;4.03;2.20;;;22.90;76.70;;;;;;5054817;28;20060;-72
2022/05/01 08:11:41;;;;;;;4.95;2.10;;;22.60;76.60;;;;;;5073116;28;20391;-72
2022/05/01 08:14:10;;;;;;;2.97;1.98;;;22.50;77.50;;;;;;5055563;28;20048;-72
2022/05/01 08:16:42;;;;;;;4.60;2.20;;;22.40;77.40;;;;;;5076102;28;20044;-76
2022/05/01 08:21:55;;;;;;;3.75;2.35;;;22.40;76.30;;;;;;5067321;28;20048;-72
2022/05/01 08:24:24;;;;;;;4.18;2.25;;;22.80;76.00;;;;;;5065619;28;20036;-71
2022/05/01 08:26:51;;;;;;;4.80;2.35;;;22.80;76.70;;;;;;5061693;28;20557;-71
2022/05/01 08:29:19;;;;;;;3.83;2.45;;;22.40;75.90;;;;;;5077313;28;20102;-71
2022/05/01 08:31:48;;;;;;;3.65;2.00;;;22.00;77.50;;;;;;5034636;28;20048;-71
2022/05/01 08:34:17;;;;;;;3.95;2.38;;;22.00;78.70;;;;;;5034316;28;20071;-71
2022/05/01 08:36:45;;;;;;;4.00;2.70;;;21.90;78.40;;;;;;5035757;28;20044;-69
2022/05/01 08:39:13;;;;;;;4.82;2.47;;;21.90;77.80;;;;;;5017725;28;20136;-70
2022/05/01 08:41:41;;;;;;;4.18;2.28;;;22.00;77.00;;;;;;5047576;28;20068;-70
2022/05/01 08:44:14;;;;;;;5.65;2.67;;;21.90;76.50;;;;;;5050594;28;20041;-72
2022/05/01 08:47:00;;;;;;;4.25;2.63;;;21.80;77.50;;;;;;5051137;28;20051;-69
2022/05/01 08:49:31;;;;;;;4.65;3.50;;;21.70;80.20;;;;;;5051289;28;20052;-72
2022/05/01 08:52:01;;;;;;;5.90;3.72;;;21.40;83.60;;;;;;5035593;28;20138;-70
2022/05/01 08:54:32;;;;;;;7.50;3.67;;;21.40;86.40;;;;;;5035079;28;20483;-73
2022/05/01 08:57:01;;;;;;;8.82;3.85;;;21.40;87.50;;;;;;5034858;28;20437;-70
2022/05/01 08:59:30;;;;;;;6.15;4.55;;;21.50;89.90;;;;;;5065123;28;20657;-71
2022/05/01 09:01:58;;;;;;;6.93;3.90;;;21.50;91.20;;;;;;5054515;28;20397;-72
2022/05/01 09:04:26;;;;;;;9.63;4.53;;;21.60;91.40;;;;;;5055595;28;20055;-72
2022/05/01 09:06:54;;;;;;;6.35;4.40;;;21.50;91.30;;;;;;5072372;28;20367;-71
2022/05/01 09:09:23;;;;;;;8.63;4.55;;;21.50;91.40;;;;;;5055855;28;20055;-70
2022/05/01 09:14:40;;;;;;;9.13;4.82;;;22.00;91.50;;;;;;5052338;28;20051;-72
2022/05/01 09:17:13;;;;;;;13.20;4.30;;;22.30;91.10;;;;;;5054022;28;20040;-72
2022/05/01 09:19:49;;;;;;;6.78;3.50;;;22.50;91.00;;;;;;5056369;28;20056;-73
2022/05/01 09:22:18;;;;;;;;;;;22.70;90.80;;;;;;5056733;28;20101;-72
2022/05/01 09:24:52;;;;;;;6.57;4.10;;;22.70;90.90;;;;;;5055739;28;20065;-71
2022/05/01 09:27:29;;;;;;;7.50;3.40;;;22.70;91.00;;;;;;5055963;28;20402;-73
2022/05/01 09:30:07;;;;;;;8.18;3.83;;;22.50;90.90;;;;;;5039567;28;20098;-71
2022/05/01 09:32:40;;;;;;;7.75;4.53;;;22.50;91.30;;;;;;5056329;28;20045;-72
2022/05/01 09:35:33;;;;;;;6.18;3.72;;;22.40;91.60;;;;;;5023038;28;20441;-71
2022/05/01 09:38:21;;;;;;;7.05;4.35;;;22.40;91.70;;;;;;5055935;28;20048;-72
2022/05/01 09:40:51;;;;;;;6.80;3.90;;;22.30;91.20;;;;;;5055858;28;20390;-72
2022/05/01 09:43:44;;;;;;;7.50;3.58;;;22.30;91.30;;;;;;5055886;28;20066;-71
2022/05/01 09:46:22;;;;;;;6.00;3.72;;;22.40;91.50;;;;;;5039175;28;20063;-71
2022/05/01 09:48:57;;;;;;;6.13;4.22;;;22.30;91.10;;;;;;5055604;28;20044;-71
2022/05/01 09:51:30;;;;;;;7.28;3.97;;;22.30;91.30;;;;;;5055881;28;20102;-72
2022/05/01 09:53:59;;;;;;;6.90;4.65;;;21.80;91.50;;;;;;5055355;28;20546;-74
2022/05/01 09:56:26;;;;;;;6.35;4.40;;;22.00;91.90;;;;;;5054941;28;20056;-72
2022/05/01 09:59:02;;;;;;;7.07;4.40;;;22.10;91.40;;;;;;5038747;28;20498;-72
2022/05/01 10:01:30;;;;;;;10.73;4.50;;;22.30;91.70;;;;;;5055491;28;20052;-73
2022/05/01 10:04:01;;;;;;;8.40;4.18;;;22.20;91.80;;;;;;5056460;28;20105;-71
2022/05/01 10:06:31;;;;;;;6.85;4.60;;;22.20;91.70;;;;;;5042202;28;20052;-72
2022/05/01 10:09:01;;;;;;;7.95;4.65;;;22.30;91.80;;;;;;5058285;28;20432;-76
2022/05/01 10:11:29;;;;;;;7.22;3.80;;;22.40;91.70;;;;;;5075461;28;20375;-71
2022/05/01 10:13:59;;;;;;;9.88;4.07;;;22.50;91.50;;;;;;5058741;28;20075;-72
2022/05/01 10:16:27;;;;;;;9.18;4.28;;;22.30;91.30;;;;;;5075639;28;20036;-71
2022/05/01 10:18:56;;;;;;;8.27;4.70;;;21.90;91.50;;;;;;5058219;28;20055;-71
2022/05/01 10:21:47;;;;;;;6.43;4.30;;;21.70;92.30;;;;;;5078483;28;20078;-72
2022/05/01 10:24:16;;;;;;;9.07;4.47;;;22.00;92.40;;;;;;5058706;28;20051;-72
2022/05/01 10:26:53;;;;;;;8.90;4.53;;;22.10;92.70;;;;;;5075110;28;20136;-71
2022/05/01 10:33:00;;;;;;;7.38;3.83;;;22.40;91.70;;;;;;5093208;28;20158;-71
2022/05/01 10:35:51;;;;;;;8.55;4.38;;;22.30;91.00;;;;;;5074974;28;20065;-70
2022/05/01 10:38:53;;;;;;;8.50;4.47;;;22.40;92.20;;;;;;5074630;28;20043;-71
2022/05/01 10:41:22;;;;;;;6.72;4.10;;;22.10;92.60;;;;;;5073593;28;20071;-70
2022/05/01 10:44:02;;;;;;;9.88;5.30;;;22.00;93.00;;;;;;5074632;28;20047;-72
2022/05/01 10:46:31;;;;;;;7.85;4.50;;;21.90;93.40;;;;;;5058704;28;20040;-71
2022/05/01 10:49:05;;;;;;;10.43;5.75;;;21.80;93.40;;;;;;5074859;28;20135;-77
2022/05/01 10:51:42;;;;;;;7.82;5.28;;;21.80;93.20;;;;;;5040734;28;20040;-70
2022/05/01 10:54:10;;;;;;;6.53;4.43;;;21.50;93.60;;;;;;5074460;28;20051;-71
2022/05/01 10:56:49;;;;;;;8.85;4.43;;;21.30;93.90;;;;;;5074453;28;20047;-71
2022/05/01 10:59:48;;;;;;;10.43;5.40;;;21.60;94.10;;;;;;5060294;28;20110;-71
2022/05/01 11:02:28;;;;;;;9.38;4.38;;;21.90;92.90;;;;;;5074824;28;20060;-71
2022/05/01 11:04:57;;;;;;;7.97;4.18;;;21.80;91.60;;;;;;5057943;28;20055;-71
2022/05/01 11:07:26;;;;;;;15.18;4.30;;;21.60;92.80;;;;;;5074356;28;20068;-71
2022/05/01 11:09:57;;;;;;;8.70;4.05;;;21.80;92.90;;;;;;5057678;28;20122;-72
2022/05/01 11:12:26;;;;;;;7.38;3.70;;;21.90;91.70;;;;;;5057507;28;20086;-71
2022/05/01 11:14:58;;;;;;;8.40;4.45;;;21.80;92.10;;;;;;5057461;28;20063;-72
2022/05/01 11:17:36;;;;;;;8.38;3.97;;;21.70;92.20;;;;;;5059564;28;20056;-71
2022/05/01 11:20:25;;;;;;;9.43;4.65;;;21.60;92.50;;;;;;5047494;28;20669;-71
2022/05/01 11:22:54;;;;;;;7.88;4.35;;;21.50;93.30;;;;;;5075377;28;20075;-71
2022/05/01 11:25:38;;;;;;;9.00;4.82;;;21.40;93.60;;;;;;5090309;28;20048;-72
2022/05/01 11:28:07;;;;;;;9.70;4.32;;;21.40;93.80;;;;;;5091564;28;20055;-71
2022/05/01 11:30:37;;;;;;;7.55;4.55;;;21.40;93.80;;;;;;5092436;28;20047;-70
2022/05/01 11:33:10;;;;;;;10.30;5.60;;;21.40;94.10;;;;;;5027626;28;20054;-71
2022/05/01 11:35:56;;;;;;;9.95;5.10;;;21.30;94.30;;;;;;5062250;28;20460;-72
2022/05/01 11:38:32;;;;;;;10.90;5.50;;;21.30;94.60;;;;;;5056518;28;20502;-71
2022/05/01 11:41:02;;;;;;;8.68;5.38;;;21.40;94.70;;;;;;5065528;28;20059;-73
2022/05/01 11:43:31;;;;;;;10.23;4.88;;;21.40;94.80;;;;;;5056495;28;20097;-71
2022/05/01 11:46:03;;;;;;;8.23;4.75;;;21.50;95.10;;;;;;5066497;28;20055;-70
2022/05/01 11:48:34;;;;;;;11.15;4.90;;;21.50;94.30;;;;;;5100081;28;20096;-71
2022/05/01 11:51:04;;;;;;;7.60;4.45;;;21.50;94.10;;;;;;5051780;28;20043;-72
2022/05/01 11:53:33;;;;;;;9.50;5.45;;;21.50;94.40;;;;;;5104635;28;20103;-72
2022/05/01 12:04:39;;;;;;;10.43;4.95;;;21.30;95.60;;;;;;5075862;28;20040;-72
2022/05/01 12:07:17;;;;;;;9.90;5.07;;;21.20;95.50;;;;;;5101389;28;20075;-72
2022/05/01 12:09:47;;;;;;;11.23;5.28;;;21.20;95.80;;;;;;5089426;28;20048;-71
2022/05/01 12:12:18;;;;;;;10.80;4.88;;;21.30;95.80;;;;;;5086671;28;20414;-70
2022/05/01 12:14:48;;;;;;;9.32;4.97;;;21.40;95.70;;;;;;5087943;28;20051;-73
2022/05/01 12:17:18;;;;;;;11.48;5.05;;;21.50;96.10;;;;;;5098234;28;20113;-73
2022/05/01 12:19:52;;;;;;;13.70;4.68;;;21.60;95.40;;;;;;5075982;28;20055;-70
2022/05/01 12:22:21;;;;;;;14.50;5.55;;;21.60;94.10;;;;;;5092630;28;20490;-71
2022/05/01 12:24:49;;;;;;;12.80;5.60;;;21.50;95.70;;;;;;5084685;28;20044;-72
2022/05/01 12:27:20;;;;;;;11.23;5.95;;;21.40;95.90;;;;;;5073662;28;20049;-73
2022/05/01 12:30:01;;;;;;;9.48;4.85;;;21.50;96.20;;;;;;5103339;28;20040;-72
2022/05/01 12:32:31;;;;;;;6.63;4.40;;;21.30;95.20;;;;;;5076827;28;20048;-72
2022/05/01 12:35:00;;;;;;;13.38;4.45;;;21.40;94.30;;;;;;5085414;28;20046;-73
2022/05/01 12:37:36;;;;;;;8.50;4.80;;;21.30;93.00;;;;;;5067953;28;20053;-70
2022/05/01 12:40:12;;;;;;;7.18;3.30;;;21.20;92.60;;;;;;5061126;28;20041;-70
2022/05/01 12:45:40;;;;;;;12.30;4.40;;;21.30;91.80;;;;;;5101224;28;19927;-71
2022/05/01 12:48:10;;;;;;;9.77;4.32;;;21.00;91.70;;;;;;5099588;28;20044;-71
2022/05/01 12:50:39;;;;;;;9.25;4.47;;;21.20;92.40;;;;;;5081603;28;20078;-71
2022/05/01 12:53:29;;;;;;;14.50;4.50;;;21.30;92.70;;;;;;5085190;28;20048;-71
2022/05/01 12:56:02;;;;;;;14.15;6.07;;;21.30;92.40;;;;;;5061174;28;20056;-73
2022/05/01 12:58:34;;;;;;;7.03;4.90;;;21.30;92.30;;;;;;5072427;28;20048;-69
2022/05/01 13:01:05;;;;;;;10.23;4.40;;;21.30;92.10;;;;;;5078581;28;20167;-69
2022/05/01 13:03:38;;;;;;;14.07;4.57;;;21.20;91.70;;;;;;5100244;28;20044;-70
2022/05/01 13:06:11;;;;;;;7.60;4.53;;;21.10;91.40;;;;;;5102643;28;20047;-69
2022/05/01 13:08:49;;;;;;;9.07;4.30;;;21.10;91.50;;;;;;5070167;28;20182;-72
2022/05/01 13:11:18;;;;;;;6.82;4.20;;;21.10;91.70;;;;;;5066275;28;20070;-72
2022/05/01 13:13:50;;;;;;;13.52;4.32;;;21.20;92.10;;;;;;5082227;28;20079;-72
2022/05/01 13:16:24;;;;;;;10.43;4.13;;;21.30;92.10;;;;;;5075378;28;20067;-73
2022/05/01 13:18:55;;;;;;;10.38;4.93;;;21.30;91.10;;;;;;5064010;28;20085;-71
2022/05/01 13:21:25;;;;;;;8.65;4.88;;;21.30;91.60;;;;;;5078256;28;20051;-71
2022/05/01 13:24:19;;;;;;;9.07;4.47;;;21.40;91.60;;;;;;5085691;28;20052;-71
2022/05/01 13:26:48;;;;;;;7.55;3.47;;;21.40;91.30;;;;;;5041834;28;20040;-73
2022/05/01 13:29:16;;;;;;;11.40;4.13;;;21.40;91.30;;;;;;5086254;28;20055;-71
2022/05/01 13:31:47;;;;;;;9.00;4.00;;;21.40;91.10;;;;;;5064302;28;20479;-72
2022/05/01 13:34:15;;;;;;;10.43;4.15;;;21.50;91.50;;;;;;5077612;28;20063;-72
2022/05/01 13:36:48;;;;;;;8.00;5.35;;;21.50;91.10;;;;;;5049178;28;20048;-72
2022/05/01 13:39:19;;;;;;;7.45;4.32;;;21.40;91.30;;;;;;5067579;28;20048;-73
2022/05/01 13:44:45;;;;;;;7.88;3.85;;;21.20;91.60;;;;;;5090138;28;20087;-73